sensor_id;sensor_type;location;lat;lon;timestamp;pressure;altitude;pressure_sealevel;temperature;humidity
72959;BME280;60008;50.826;6.896;2023-03-21T00:02:06;101164.75;;;9.85;100.00
72959;BME280;60008;50.826;6.896;2023-03-21T00:04:51;101159.06;;;9.80;100.00
72959;BME280;60008;50.826;6.896;2023-03-21T00:07:39;101155.16;;;9.74;100.00
72959;BME280;60008;50.826;6.896;2023-03-21T00:10:24;101157.13;;;9.72;100.00
72959;BME280;60008;50.826;6.896;2023-03-21T00:13:24;101147.91;;;9.76;100.00
72959;BME280;60008;50.826;6.896;2023-03-21T00:16:13;101136.34;;;9.77;100.00
72959;BME280;60008;50.826;6.896;2023-03-21T00:19:08;101146.09;;;9.77;100.00
72959;BME280;60008;50.826;6.896;2023-03-21T00:21:54;101139.00;;;9.77;100.00
72959;BME280;60008;50.826;6.896;2023-03-21T00:24:52;101136.19;;;9.79;100.00
72959;BME280;60008;50.826;6.896;2023-03-21T00:27:37;101138.44;;;9.83;100.00
72959;BME280;60008;50.826;6.896;2023-03-21T00:30:43;101132.75;;;9.78;100.00
72959;BME280;60008;50.826;6.896;2023-03-21T00:33:28;101131.44;;;9.82;100.00
72959;BME280;60008;50.826;6.896;2023-03-21T00:36:13;101134.94;;;9.83;100.00
72959;BME280;60008;50.826;6.896;2023-03-21T00:38:59;101138.03;;;9.78;100.00
72959;BME280;60008;50.826;6.896;2023-03-21T00:41:48;101136.19;;;9.79;100.00
72959;BME280;60008;50.826;6.896;2023-03-21T00:44:33;101133.53;;;9.79;100.00
72959;BME280;60008;50.826;6.896;2023-03-21T00:47:20;101135.38;;;9.78;100.00
72959;BME280;60008;50.826;6.896;2023-03-21T00:50:11;101125.91;;;9.76;100.00
72959;BME280;60008;50.826;6.896;2023-03-21T00:52:57;101128.03;;;9.72;100.00
72959;BME280;60008;50.826;6.896;2023-03-21T00:55:42;101121.22;;;9.60;100.00
72959;BME280;60008;50.826;6.896;2023-03-21T00:58:27;101111.75;;;9.67;100.00
72959;BME280;60008;50.826;6.896;2023-03-21T01:01:12;101113.09;;;9.71;100.00
72959;BME280;60008;50.826;6.896;2023-03-21T01:03:58;101108.09;;;9.68;100.00
72959;BME280;60008;50.826;6.896;2023-03-21T01:06:52;101108.38;;;9.65;100.00
72959;BME280;60008;50.826;6.896;2023-03-21T01:09:38;101107.59;;;9.65;100.00
72959;BME280;60008;50.826;6.896;2023-03-21T01:12:23;101100.59;;;9.64;100.00
72959;BME280;60008;50.826;6.896;2023-03-21T01:15:08;101101.56;;;9.63;100.00
72959;BME280;60008;50.826;6.896;2023-03-21T01:17:53;101098.09;;;9.62;100.00
72959;BME280;60008;50.826;6.896;2023-03-21T01:20:40;101103.94;;;9.66;100.00
72959;BME280;60008;50.826;6.896;2023-03-21T01:23:26;101100.16;;;9.68;100.00
72959;BME280;60008;50.826;6.896;2023-03-21T01:26:12;101093.75;;;9.71;100.00
72959;BME280;60008;50.826;6.896;2023-03-21T01:28:58;101101.56;;;9.72;100.00
72959;BME280;60008;50.826;6.896;2023-03-21T01:31:43;101091.81;;;9.73;100.00
72959;BME280;60008;50.826;6.896;2023-03-21T01:34:28;101097.78;;;9.75;100.00
72959;BME280;60008;50.826;6.896;2023-03-21T01:37:13;101087.94;;;9.67;100.00
72959;BME280;60008;50.826;6.896;2023-03-21T01:39:58;101087.94;;;9.57;100.00
72959;BME280;60008;50.826;6.896;2023-03-21T01:42:44;101087.13;;;9.57;100.00
72959;BME280;60008;50.826;6.896;2023-03-21T01:49:06;101082.28;;;9.52;100.00
72959;BME280;60008;50.826;6.896;2023-03-21T01:51:57;101076.28;;;9.50;100.00
72959;BME280;60008;50.826;6.896;2023-03-21T01:54:54;101084.81;;;9.44;100.00
72959;BME280;60008;50.826;6.896;2023-03-21T01:57:45;101079.34;;;9.46;100.00
72959;BME280;60008;50.826;6.896;2023-03-21T02:00:49;101079.81;;;9.41;100.00
72959;BME280;60008;50.826;6.896;2023-03-21T02:03:34;101076.47;;;9.39;100.00
72959;BME280;60008;50.826;6.896;2023-03-21T02:06:31;101071.19;;;9.30;100.00
72959;BME280;60008;50.826;6.896;2023-03-21T02:09:21;101066.75;;;9.30;100.00
72959;BME280;60008;50.826;6.896;2023-03-21T02:12:07;101058.41;;;9.25;100.00
72959;BME280;60008;50.826;6.896;2023-03-21T02:14:54;101058.69;;;9.22;100.00
72959;BME280;60008;50.826;6.896;2023-03-21T02:17:53;101057.97;;;9.30;100.00
72959;BME280;60008;50.826;6.896;2023-03-21T02:27:17;101039.28;;;9.41;100.00
72959;BME280;60008;50.826;6.896;2023-03-21T02:39:30;101029.44;;;9.33;100.00
72959;BME280;60008;50.826;6.896;2023-03-21T02:45:53;101033.59;;;9.36;100.00
72959;BME280;60008;50.826;6.896;2023-03-21T02:48:52;101030.97;;;9.36;100.00
72959;BME280;60008;50.826;6.896;2023-03-21T02:51:40;101028.69;;;9.41;100.00
72959;BME280;60008;50.826;6.896;2023-03-21T02:54:27;101025.38;;;9.39;100.00
72959;BME280;60008;50.826;6.896;2023-03-21T02:57:32;101023.69;;;9.38;100.00
72959;BME280;60008;50.826;6.896;2023-03-21T03:00:30;101020.81;;;9.31;100.00
72959;BME280;60008;50.826;6.896;2023-03-21T03:03:16;101022.19;;;9.35;100.00
72959;BME280;60008;50.826;6.896;2023-03-21T03:06:26;101023.31;;;9.33;100.00
72959;BME280;60008;50.826;6.896;2023-03-21T03:12:36;101016.22;;;9.33;100.00
72959;BME280;60008;50.826;6.896;2023-03-21T03:15:38;101017.34;;;9.31;100.00
72959;BME280;60008;50.826;6.896;2023-03-21T03:18:58;101014.41;;;9.34;100.00
72959;BME280;60008;50.826;6.896;2023-03-21T03:21:57;100997.41;;;9.36;100.00
72959;BME280;60008;50.826;6.896;2023-03-21T03:24:55;101000.91;;;9.37;100.00
72959;BME280;60008;50.826;6.896;2023-03-21T03:27:45;101003.38;;;9.38;100.00
72959;BME280;60008;50.826;6.896;2023-03-21T03:30:32;101002.81;;;9.35;100.00
72959;BME280;60008;50.826;6.896;2023-03-21T03:33:36;101000.34;;;9.33;100.00
72959;BME280;60008;50.826;6.896;2023-03-21T03:36:26;101003.28;;;9.30;100.00
72959;BME280;60008;50.826;6.896;2023-03-21T03:39:17;100999.28;;;9.26;100.00
72959;BME280;60008;50.826;6.896;2023-03-21T03:42:06;100993.97;;;9.26;100.00
72959;BME280;60008;50.826;6.896;2023-03-21T03:45:11;100993.28;;;9.24;100.00
72959;BME280;60008;50.826;6.896;2023-03-21T03:51:06;100987.59;;;9.19;100.00
72959;BME280;60008;50.826;6.896;2023-03-21T03:54:09;100991.63;;;9.23;100.00
72959;BME280;60008;50.826;6.896;2023-03-21T03:56:56;100983.69;;;9.23;100.00
72959;BME280;60008;50.826;6.896;2023-03-21T03:59:43;100974.63;;;9.26;100.00
72959;BME280;60008;50.826;6.896;2023-03-21T04:02:29;100983.25;;;9.28;100.00
72959;BME280;60008;50.826;6.896;2023-03-21T04:05:16;100977.81;;;9.29;100.00
72959;BME280;60008;50.826;6.896;2023-03-21T04:08:05;100976.81;;;9.30;100.00
72959;BME280;60008;50.826;6.896;2023-03-21T04:10:50;100985.44;;;9.32;100.00
72959;BME280;60008;50.826;6.896;2023-03-21T04:13:35;100984.31;;;9.35;100.00
72959;BME280;60008;50.826;6.896;2023-03-21T04:16:20;100977.22;;;9.35;100.00
72959;BME280;60008;50.826;6.896;2023-03-21T04:19:06;100979.34;;;9.32;100.00
72959;BME280;60008;50.826;6.896;2023-03-21T04:21:51;100977.66;;;9.31;100.00
72959;BME280;60008;50.826;6.896;2023-03-21T04:24:38;100975.03;;;9.31;100.00
72959;BME280;60008;50.826;6.896;2023-03-21T04:27:23;100972.53;;;9.29;100.00
72959;BME280;60008;50.826;6.896;2023-03-21T04:30:09;100977.38;;;9.34;100.00
72959;BME280;60008;50.826;6.896;2023-03-21T04:32:56;100971.00;;;9.27;100.00
72959;BME280;60008;50.826;6.896;2023-03-21T04:35:44;100967.09;;;9.31;100.00
72959;BME280;60008;50.826;6.896;2023-03-21T04:38:30;100968.06;;;9.30;100.00
72959;BME280;60008;50.826;6.896;2023-03-21T04:41:15;100964.44;;;9.31;100.00
72959;BME280;60008;50.826;6.896;2023-03-21T04:44:00;100961.50;;;9.34;100.00
72959;BME280;60008;50.826;6.896;2023-03-21T04:46:45;100963.16;;;9.35;100.00
72959;BME280;60008;50.826;6.896;2023-03-21T04:49:31;100962.75;;;9.30;100.00
72959;BME280;60008;50.826;6.896;2023-03-21T04:52:16;100955.00;;;9.28;100.00
72959;BME280;60008;50.826;6.896;2023-03-21T04:55:01;100960.66;;;9.33;100.00
72959;BME280;60008;50.826;6.896;2023-03-21T04:57:47;100961.06;;;9.38;100.00
72959;BME280;60008;50.826;6.896;2023-03-21T05:00:32;100959.94;;;9.41;100.00
72959;BME280;60008;50.826;6.896;2023-03-21T05:03:22;100963.56;;;9.40;100.00
72959;BME280;60008;50.826;6.896;2023-03-21T05:06:08;100958.00;;;9.43;100.00
72959;BME280;60008;50.826;6.896;2023-03-21T05:08:54;100953.50;;;9.43;100.00
72959;BME280;60008;50.826;6.896;2023-03-21T05:11:49;100957.28;;;9.41;100.00
72959;BME280;60008;50.826;6.896;2023-03-21T05:14:34;100959.78;;;9.42;100.00
72959;BME280;60008;50.826;6.896;2023-03-21T05:17:19;100953.50;;;9.43;100.00
72959;BME280;60008;50.826;6.896;2023-03-21T05:20:08;100956.16;;;9.43;100.00
72959;BME280;60008;50.826;6.896;2023-03-21T05:22:55;100960.63;;;9.43;100.00
72959;BME280;60008;50.826;6.896;2023-03-21T05:25:40;100960.38;;;9.36;100.00
72959;BME280;60008;50.826;6.896;2023-03-21T05:28:25;100955.09;;;9.36;100.00
72959;BME280;60008;50.826;6.896;2023-03-21T05:31:16;100962.28;;;9.44;100.00
72959;BME280;60008;50.826;6.896;2023-03-21T05:34:02;100951.41;;;9.47;100.00
72959;BME280;60008;50.826;6.896;2023-03-21T05:36:47;100956.31;;;9.42;100.00
72959;BME280;60008;50.826;6.896;2023-03-21T05:39:32;100957.16;;;9.42;100.00
72959;BME280;60008;50.826;6.896;2023-03-21T05:42:18;100955.47;;;9.41;100.00
72959;BME280;60008;50.826;6.896;2023-03-21T05:45:04;100954.94;;;9.38;100.00
72959;BME280;60008;50.826;6.896;2023-03-21T05:47:49;100955.34;;;9.43;100.00
72959;BME280;60008;50.826;6.896;2023-03-21T05:50:34;100956.03;;;9.45;100.00
72959;BME280;60008;50.826;6.896;2023-03-21T05:53:19;100951.13;;;9.50;100.00
72959;BME280;60008;50.826;6.896;2023-03-21T05:56:07;100960.84;;;9.49;100.00
72959;BME280;60008;50.826;6.896;2023-03-21T05:58:52;100961.69;;;9.50;100.00
72959;BME280;60008;50.826;6.896;2023-03-21T06:01:37;100970.59;;;9.49;100.00
72959;BME280;60008;50.826;6.896;2023-03-21T06:04:22;100963.75;;;9.56;100.00
72959;BME280;60008;50.826;6.896;2023-03-21T06:07:07;100959.44;;;9.55;100.00
72959;BME280;60008;50.826;6.896;2023-03-21T06:09:52;100962.47;;;9.60;100.00
72959;BME280;60008;50.826;6.896;2023-03-21T06:12:37;100967.16;;;9.66;100.00
72959;BME280;60008;50.826;6.896;2023-03-21T06:15:22;100974.13;;;9.67;100.00
72959;BME280;60008;50.826;6.896;2023-03-21T06:18:07;100974.56;;;9.63;100.00
72959;BME280;60008;50.826;6.896;2023-03-21T06:20:52;100974.84;;;9.59;100.00
72959;BME280;60008;50.826;6.896;2023-03-21T06:23:38;100973.28;;;9.67;100.00
72959;BME280;60008;50.826;6.896;2023-03-21T06:26:23;100967.72;;;9.70;100.00
72959;BME280;60008;50.826;6.896;2023-03-21T06:29:09;100978.88;;;9.64;100.00
72959;BME280;60008;50.826;6.896;2023-03-21T06:31:54;100973.38;;;9.75;100.00
72959;BME280;60008;50.826;6.896;2023-03-21T06:34:39;100980.41;;;9.84;100.00
72959;BME280;60008;50.826;6.896;2023-03-21T06:37:24;100968.84;;;9.85;100.00
72959;BME280;60008;50.826;6.896;2023-03-21T06:40:10;100979.59;;;9.83;100.00
72959;BME280;60008;50.826;6.896;2023-03-21T06:42:57;100989.81;;;9.78;100.00
72959;BME280;60008;50.826;6.896;2023-03-21T06:45:43;100989.25;;;9.75;100.00
72959;BME280;60008;50.826;6.896;2023-03-21T06:48:28;100990.22;;;9.74;100.00
72959;BME280;60008;50.826;6.896;2023-03-21T06:51:14;100995.44;;;9.66;100.00
72959;BME280;60008;50.826;6.896;2023-03-21T06:53:59;100998.63;;;9.69;100.00
72959;BME280;60008;50.826;6.896;2023-03-21T06:56:45;100996.03;;;9.59;100.00
72959;BME280;60008;50.826;6.896;2023-03-21T06:59:30;101008.72;;;9.56;100.00
72959;BME280;60008;50.826;6.896;2023-03-21T07:02:15;101012.75;;;9.60;100.00
72959;BME280;60008;50.826;6.896;2023-03-21T07:05:01;101022.00;;;9.46;100.00
72959;BME280;60008;50.826;6.896;2023-03-21T07:07:46;101016.03;;;9.44;100.00
72959;BME280;60008;50.826;6.896;2023-03-21T07:10:32;101017.00;;;9.43;100.00
72959;BME280;60008;50.826;6.896;2023-03-21T07:13:17;101032.28;;;9.49;100.00
72959;BME280;60008;50.826;6.896;2023-03-21T07:16:02;101032.06;;;9.43;100.00
72959;BME280;60008;50.826;6.896;2023-03-21T07:18:47;101039.53;;;9.47;100.00
72959;BME280;60008;50.826;6.896;2023-03-21T07:21:32;101041.94;;;9.41;100.00
72959;BME280;60008;50.826;6.896;2023-03-21T07:24:17;101046.94;;;9.44;100.00
72959;BME280;60008;50.826;6.896;2023-03-21T07:27:02;101050.03;;;9.39;100.00
72959;BME280;60008;50.826;6.896;2023-03-21T07:29:47;101055.09;;;9.23;100.00
72959;BME280;60008;50.826;6.896;2023-03-21T07:32:34;101065.22;;;9.28;100.00
72959;BME280;60008;50.826;6.896;2023-03-21T07:35:19;101062.25;;;9.40;100.00
72959;BME280;60008;50.826;6.896;2023-03-21T07:38:04;101058.53;;;9.33;100.00
72959;BME280;60008;50.826;6.896;2023-03-21T07:40:49;101062.03;;;9.24;100.00
72959;BME280;60008;50.826;6.896;2023-03-21T07:43:35;101061.22;;;9.24;100.00
72959;BME280;60008;50.826;6.896;2023-03-21T07:46:23;101068.56;;;9.30;100.00
72959;BME280;60008;50.826;6.896;2023-03-21T07:49:08;101058.31;;;9.17;100.00
72959;BME280;60008;50.826;6.896;2023-03-21T07:51:53;101062.00;;;9.34;100.00
72959;BME280;60008;50.826;6.896;2023-03-21T07:54:38;101066.78;;;9.21;100.00
72959;BME280;60008;50.826;6.896;2023-03-21T07:57:23;101065.00;;;9.12;100.00
72959;BME280;60008;50.826;6.896;2023-03-21T08:00:08;101070.00;;;9.15;100.00
72959;BME280;60008;50.826;6.896;2023-03-21T08:02:55;101070.69;;;9.17;100.00
72959;BME280;60008;50.826;6.896;2023-03-21T08:05:43;101072.94;;;9.21;100.00
72959;BME280;60008;50.826;6.896;2023-03-21T08:08:29;101080.25;;;9.27;100.00
72959;BME280;60008;50.826;6.896;2023-03-21T08:11:14;101087.63;;;9.33;100.00
72959;BME280;60008;50.826;6.896;2023-03-21T08:13:59;101087.44;;;9.44;100.00
72959;BME280;60008;50.826;6.896;2023-03-21T08:16:44;101071.91;;;9.32;100.00
72959;BME280;60008;50.826;6.896;2023-03-21T08:19:29;101076.72;;;9.46;100.00
72959;BME280;60008;50.826;6.896;2023-03-21T08:22:15;101075.53;;;9.31;100.00
72959;BME280;60008;50.826;6.896;2023-03-21T08:25:01;101078.72;;;9.34;100.00
72959;BME280;60008;50.826;6.896;2023-03-21T08:27:49;101071.59;;;9.35;100.00
72959;BME280;60008;50.826;6.896;2023-03-21T08:30:36;101070.06;;;9.42;100.00
72959;BME280;60008;50.826;6.896;2023-03-21T08:33:21;101062.56;;;9.37;100.00
72959;BME280;60008;50.826;6.896;2023-03-21T08:36:07;101064.25;;;9.29;100.00
72959;BME280;60008;50.826;6.896;2023-03-21T08:38:52;101059.94;;;9.28;100.00
72959;BME280;60008;50.826;6.896;2023-03-21T08:41:40;101067.69;;;9.39;100.00
72959;BME280;60008;50.826;6.896;2023-03-21T08:44:26;101074.78;;;9.48;100.00
72959;BME280;60008;50.826;6.896;2023-03-21T08:47:11;101082.09;;;9.54;100.00
72959;BME280;60008;50.826;6.896;2023-03-21T08:49:57;101074.34;;;9.52;100.00
72959;BME280;60008;50.826;6.896;2023-03-21T08:52:43;101080.78;;;9.40;100.00
72959;BME280;60008;50.826;6.896;2023-03-21T08:55:28;101072.16;;;9.38;100.00
72959;BME280;60008;50.826;6.896;2023-03-21T08:58:14;101069.78;;;9.35;100.00
72959;BME280;60008;50.826;6.896;2023-03-21T09:00:59;101077.88;;;9.34;100.00
72959;BME280;60008;50.826;6.896;2023-03-21T09:03:44;101082.06;;;9.36;100.00
72959;BME280;60008;50.826;6.896;2023-03-21T09:06:29;101083.41;;;9.40;100.00
72959;BME280;60008;50.826;6.896;2023-03-21T09:09:15;101082.34;;;9.33;100.00
72959;BME280;60008;50.826;6.896;2023-03-21T09:12:00;101078.16;;;9.31;100.00
72959;BME280;60008;50.826;6.896;2023-03-21T09:14:45;101059.81;;;9.29;100.00
72959;BME280;60008;50.826;6.896;2023-03-21T09:17:30;101062.19;;;9.23;100.00
72959;BME280;60008;50.826;6.896;2023-03-21T09:20:16;101063.25;;;9.39;100.00
72959;BME280;60008;50.826;6.896;2023-03-21T09:23:10;101064.91;;;9.40;100.00
72959;BME280;60008;50.826;6.896;2023-03-21T09:25:55;101057.03;;;9.58;100.00
72959;BME280;60008;50.826;6.896;2023-03-21T09:28:41;101057.34;;;9.55;100.00
72959;BME280;60008;50.826;6.896;2023-03-21T09:31:26;101067.66;;;9.76;100.00
72959;BME280;60008;50.826;6.896;2023-03-21T09:34:12;101059.53;;;9.59;100.00
72959;BME280;60008;50.826;6.896;2023-03-21T09:36:59;101062.91;;;9.52;100.00
72959;BME280;60008;50.826;6.896;2023-03-21T09:39:44;101063.47;;;9.46;100.00
72959;BME280;60008;50.826;6.896;2023-03-21T09:42:39;101072.31;;;9.37;100.00
72959;BME280;60008;50.826;6.896;2023-03-21T09:45:35;101072.06;;;9.57;100.00
72959;BME280;60008;50.826;6.896;2023-03-21T09:48:33;101065.31;;;9.45;100.00
72959;BME280;60008;50.826;6.896;2023-03-21T09:51:32;101061.25;;;9.51;100.00
72959;BME280;60008;50.826;6.896;2023-03-21T09:54:24;101064.31;;;9.56;100.00
72959;BME280;60008;50.826;6.896;2023-03-21T09:57:23;101058.56;;;9.61;100.00
72959;BME280;60008;50.826;6.896;2023-03-21T10:00:15;101049.88;;;9.68;100.00
72959;BME280;60008;50.826;6.896;2023-03-21T10:03:17;101038.53;;;9.58;100.00
72959;BME280;60008;50.826;6.896;2023-03-21T10:06:09;101043.66;;;9.59;100.00
72959;BME280;60008;50.826;6.896;2023-03-21T10:09:14;101033.41;;;9.47;100.00
72959;BME280;60008;50.826;6.896;2023-03-21T10:12:05;101037.47;;;9.41;100.00
72959;BME280;60008;50.826;6.896;2023-03-21T10:14:53;101040.81;;;9.43;100.00
72959;BME280;60008;50.826;6.896;2023-03-21T10:17:45;101037.28;;;9.52;100.00
72959;BME280;60008;50.826;6.896;2023-03-21T10:20:33;101023.19;;;9.62;100.00
72959;BME280;60008;50.826;6.896;2023-03-21T10:23:20;101023.19;;;9.62;100.00
72959;BME280;60008;50.826;6.896;2023-03-21T10:26:06;101017.81;;;9.71;100.00
72959;BME280;60008;50.826;6.896;2023-03-21T10:28:53;101020.25;;;9.65;100.00
72959;BME280;60008;50.826;6.896;2023-03-21T10:31:41;101014.63;;;9.68;100.00
72959;BME280;60008;50.826;6.896;2023-03-21T10:34:32;101017.25;;;9.95;100.00
72959;BME280;60008;50.826;6.896;2023-03-21T10:37:18;101001.31;;;10.04;100.00
72959;BME280;60008;50.826;6.896;2023-03-21T10:40:03;100987.31;;;9.94;100.00
72959;BME280;60008;50.826;6.896;2023-03-21T10:42:54;100989.09;;;10.21;100.00
72959;BME280;60008;50.826;6.896;2023-03-21T10:45:40;100979.59;;;10.54;100.00
72959;BME280;60008;50.826;6.896;2023-03-21T10:48:25;100977.31;;;10.59;100.00
72959;BME280;60008;50.826;6.896;2023-03-21T10:51:15;100976.66;;;10.57;100.00
72959;BME280;60008;50.826;6.896;2023-03-21T10:54:07;100971.72;;;10.44;100.00
72959;BME280;60008;50.826;6.896;2023-03-21T10:57:09;100984.91;;;10.36;100.00
72959;BME280;60008;50.826;6.896;2023-03-21T10:59:58;100970.25;;;10.24;100.00
72959;BME280;60008;50.826;6.896;2023-03-21T11:02:50;100961.22;;;10.17;100.00
72959;BME280;60008;50.826;6.896;2023-03-21T11:05:39;100964.25;;;10.04;100.00
72959;BME280;60008;50.826;6.896;2023-03-21T11:08:28;100958.34;;;9.93;100.00
72959;BME280;60008;50.826;6.896;2023-03-21T11:11:25;100961.22;;;9.99;100.00
72959;BME280;60008;50.826;6.896;2023-03-21T11:14:26;100955.75;;;10.01;100.00
72959;BME280;60008;50.826;6.896;2023-03-21T11:17:23;100954.94;;;10.00;100.00
72959;BME280;60008;50.826;6.896;2023-03-21T11:20:16;100954.84;;;10.10;100.00
72959;BME280;60008;50.826;6.896;2023-03-21T11:23:05;100948.88;;;9.90;100.00
72959;BME280;60008;50.826;6.896;2023-03-21T11:25:53;100953.63;;;9.87;100.00
72959;BME280;60008;50.826;6.896;2023-03-21T11:28:40;100944.19;;;9.67;100.00
72959;BME280;60008;50.826;6.896;2023-03-21T11:31:38;100946.66;;;9.68;100.00
72959;BME280;60008;50.826;6.896;2023-03-21T11:34:32;100940.63;;;9.76;100.00
72959;BME280;60008;50.826;6.896;2023-03-21T11:37:30;100942.09;;;9.70;100.00
72959;BME280;60008;50.826;6.896;2023-03-21T11:40:30;100941.75;;;9.73;100.00
72959;BME280;60008;50.826;6.896;2023-03-21T11:46:07;100938.81;;;9.58;100.00
72959;BME280;60008;50.826;6.896;2023-03-21T11:48:54;100944.41;;;9.55;100.00
72959;BME280;60008;50.826;6.896;2023-03-21T11:54:56;100944.53;;;9.54;100.00
72959;BME280;60008;50.826;6.896;2023-03-21T11:58:08;100950.25;;;9.77;100.00
72959;BME280;60008;50.826;6.896;2023-03-21T12:01:02;100942.59;;;9.74;100.00
72959;BME280;60008;50.826;6.896;2023-03-21T12:07:13;100952.03;;;10.11;100.00
72959;BME280;60008;50.826;6.896;2023-03-21T12:16:37;100920.00;;;10.14;100.00
72959;BME280;60008;50.826;6.896;2023-03-21T12:19:48;100902.28;;;10.15;100.00
72959;BME280;60008;50.826;6.896;2023-03-21T12:22:44;100908.78;;;10.21;100.00
72959;BME280;60008;50.826;6.896;2023-03-21T12:25:38;100915.13;;;10.28;100.00
72959;BME280;60008;50.826;6.896;2023-03-21T12:28:58;100916.81;;;10.29;100.00
72959;BME280;60008;50.826;6.896;2023-03-21T12:35:25;100911.19;;;10.32;100.00
72959;BME280;60008;50.826;6.896;2023-03-21T12:38:17;100892.22;;;10.19;100.00
72959;BME280;60008;50.826;6.896;2023-03-21T12:41:22;100923.91;;;10.28;100.00
72959;BME280;60008;50.826;6.896;2023-03-21T12:44:13;100918.22;;;10.41;100.00
72959;BME280;60008;50.826;6.896;2023-03-21T12:47:02;100897.59;;;10.27;100.00
72959;BME280;60008;50.826;6.896;2023-03-21T12:52:46;100887.81;;;10.79;100.00
72959;BME280;60008;50.826;6.896;2023-03-21T12:55:34;100876.63;;;11.01;100.00
72959;BME280;60008;50.826;6.896;2023-03-21T12:58:21;100866.00;;;11.01;100.00
72959;BME280;60008;50.826;6.896;2023-03-21T13:01:09;100851.28;;;11.06;100.00
72959;BME280;60008;50.826;6.896;2023-03-21T13:04:19;100855.47;;;11.17;100.00
72959;BME280;60008;50.826;6.896;2023-03-21T13:07:12;100849.81;;;11.12;100.00
72959;BME280;60008;50.826;6.896;2023-03-21T13:09:58;100854.59;;;11.00;100.00
72959;BME280;60008;50.826;6.896;2023-03-21T13:15:59;100833.28;;;10.76;100.00
72959;BME280;60008;50.826;6.896;2023-03-21T13:18:53;100825.72;;;10.89;100.00
72959;BME280;60008;50.826;6.896;2023-03-21T13:22:05;100817.28;;;11.02;100.00
72959;BME280;60008;50.826;6.896;2023-03-21T13:25:14;100821.72;;;10.85;100.00
72959;BME280;60008;50.826;6.896;2023-03-21T13:28:02;100801.81;;;10.81;100.00
72959;BME280;60008;50.826;6.896;2023-03-21T13:30:50;100816.97;;;11.05;100.00
72959;BME280;60008;50.826;6.896;2023-03-21T13:33:35;100808.91;;;10.72;100.00
72959;BME280;60008;50.826;6.896;2023-03-21T13:36:24;100811.41;;;10.82;100.00
72959;BME280;60008;50.826;6.896;2023-03-21T13:39:20;100795.00;;;10.70;100.00
72959;BME280;60008;50.826;6.896;2023-03-21T13:42:22;100786.28;;;10.94;100.00
72959;BME280;60008;50.826;6.896;2023-03-21T13:45:11;100787.78;;;11.05;100.00
72959;BME280;60008;50.826;6.896;2023-03-21T13:48:30;100779.31;;;11.01;100.00
72959;BME280;60008;50.826;6.896;2023-03-21T13:54:21;100773.66;;;10.88;100.00
72959;BME280;60008;50.826;6.896;2023-03-21T14:00:28;100763.63;;;11.40;100.00
72959;BME280;60008;50.826;6.896;2023-03-21T14:03:15;100749.19;;;11.10;100.00
72959;BME280;60008;50.826;6.896;2023-03-21T14:06:02;100756.19;;;11.44;100.00
72959;BME280;60008;50.826;6.896;2023-03-21T14:08:47;100741.56;;;11.23;100.00
72959;BME280;60008;50.826;6.896;2023-03-21T14:11:34;100742.59;;;11.47;100.00
72959;BME280;60008;50.826;6.896;2023-03-21T14:14:25;100737.28;;;11.55;100.00
72959;BME280;60008;50.826;6.896;2023-03-21T14:17:27;100726.66;;;11.55;100.00
72959;BME280;60008;50.826;6.896;2023-03-21T14:20:28;100727.81;;;11.68;100.00
72959;BME280;60008;50.826;6.896;2023-03-21T14:23:18;100727.97;;;11.67;100.00
72959;BME280;60008;50.826;6.896;2023-03-21T14:26:06;100731.78;;;11.56;100.00
72959;BME280;60008;50.826;6.896;2023-03-21T14:28:53;100727.00;;;11.44;100.00
72959;BME280;60008;50.826;6.896;2023-03-21T14:31:40;100723.16;;;11.62;100.00
72959;BME280;60008;50.826;6.896;2023-03-21T14:34:27;100724.81;;;11.63;100.00
72959;BME280;60008;50.826;6.896;2023-03-21T14:37:39;100714.22;;;11.79;100.00
72959;BME280;60008;50.826;6.896;2023-03-21T14:40:26;100709.06;;;11.70;100.00
72959;BME280;60008;50.826;6.896;2023-03-21T14:43:12;100717.00;;;11.86;100.00
72959;BME280;60008;50.826;6.896;2023-03-21T14:45:59;100716.53;;;11.74;100.00
72959;BME280;60008;50.826;6.896;2023-03-21T14:48:45;100705.88;;;11.82;100.00
72959;BME280;60008;50.826;6.896;2023-03-21T14:51:29;100710.53;;;11.80;100.00
72959;BME280;60008;50.826;6.896;2023-03-21T14:54:16;100700.13;;;11.71;100.00
72959;BME280;60008;50.826;6.896;2023-03-21T14:57:06;100702.75;;;11.79;100.00
72959;BME280;60008;50.826;6.896;2023-03-21T14:59:57;100699.78;;;12.21;100.00
72959;BME280;60008;50.826;6.896;2023-03-21T15:02:43;100678.72;;;12.19;100.00
72959;BME280;60008;50.826;6.896;2023-03-21T15:05:37;100678.66;;;12.35;100.00
72959;BME280;60008;50.826;6.896;2023-03-21T15:08:27;100667.00;;;12.44;100.00
72959;BME280;60008;50.826;6.896;2023-03-21T15:11:13;100657.94;;;12.53;100.00
72959;BME280;60008;50.826;6.896;2023-03-21T15:14:08;100656.75;;;12.56;100.00
72959;BME280;60008;50.826;6.896;2023-03-21T15:16:56;100657.97;;;12.76;100.00
72959;BME280;60008;50.826;6.896;2023-03-21T15:19:44;100656.22;;;12.69;100.00
72959;BME280;60008;50.826;6.896;2023-03-21T15:22:36;100652.06;;;12.89;100.00
72959;BME280;60008;50.826;6.896;2023-03-21T15:25:31;100640.22;;;12.91;100.00
72959;BME280;60008;50.826;6.896;2023-03-21T15:28:18;100611.19;;;13.27;100.00
72959;BME280;60008;50.826;6.896;2023-03-21T15:31:14;100601.03;;;13.31;100.00
72959;BME280;60008;50.826;6.896;2023-03-21T15:34:00;100614.56;;;13.21;100.00
72959;BME280;60008;50.826;6.896;2023-03-21T15:36:47;100605.59;;;13.22;100.00
72959;BME280;60008;50.826;6.896;2023-03-21T15:39:35;100605.31;;;13.32;100.00
72959;BME280;60008;50.826;6.896;2023-03-21T15:42:24;100600.50;;;13.50;100.00
72959;BME280;60008;50.826;6.896;2023-03-21T15:45:26;100599.47;;;13.51;100.00